Aérodrome :







RETROUVEZ-NOUS SUR...

 
LOGIN :

S'inscrire | Disclaimer

   EN    FR    IT 

 









Légende :    VFR   VFR Marginal   IFR   IFR Intensif   IFR Très Intensif
Visi : 
Plafond : 
>= 8 km
>= 3000ft
5 à 8 km
1000 à 3000 ft
1500m à 5 km
500 à 1000 ft
800 à 1500m
200 à 500 ft
< 800m
< 200 ft
Symboles :   Orages  Brouillard  Fortes neiges  Fortes précipitations  Vent > 20 kt






- Altitude de l'aérodrome : 110 ft
- Code IATA : YFB


CYFB - Iqaluit

DERNIER METAR :
  • 270000Z 34010KT 30SM OVC029 M01/M05 A2991 RMK SC8 SLP132

METARs EXPIRÉS :
  • 262300Z 33013KT 30SM OVC029 M01/M05 A2990 RMK SC8 SLP128
  • 262200Z 33017KT 30SM OVC029 M01/M04 A2988 RMK SC8 SLP123

TAF TAF CYFB
Valide du 27 à 00h jusqu'au 28 à 00h UTC


262338Z 2700/2724 33010KT P6SM OVC040
TEMPO 2700/2714 P6SM -SN OVC020
FM271400 33012KT P6SM FEW015 BKN030 RMK NXT FCST BY 270600Z
FIR CZUL / Amérique du Nord



MET'MAP, la Météo Aéronautique d'un coup d'oeil ! - Copyright ORBIFLY Décembre 2007 - Disclaimer

ORBIFLY MET'MAP TEAM :

Programmation & Développement : Alexandra Zaïnal
Sur une idée originale de : Baudouin d'Aumeries
Assistance à la programmation : Marc-Olivier Méhu
Soutien technique & logistique : Manuel Goepfert

Contact : metmap@orbifly.com




SOURCES & CREDITS :

   NOAA